sensor_id;sensor_type;location;lat;lon;timestamp;P1;durP1;ratioP1;P2;durP2;ratioP2
8297;SDS011;4187;42.778;23.242;2023-08-17T00:00:38;18.48;;;10.18;;
8297;SDS011;4187;42.778;23.242;2023-08-17T00:04:03;12.98;;;9.73;;
8297;SDS011;4187;42.778;23.242;2023-08-17T00:07:28;10.10;;;9.15;;
8297;SDS011;4187;42.778;23.242;2023-08-17T00:10:54;9.00;;;7.57;;
8297;SDS011;4187;42.778;23.242;2023-08-17T00:14:21;10.98;;;7.78;;
8297;SDS011;4187;42.778;23.242;2023-08-17T00:17:46;14.40;;;7.45;;
8297;SDS011;4187;42.778;23.242;2023-08-17T00:21:11;10.05;;;6.30;;
8297;SDS011;4187;42.778;23.242;2023-08-17T00:24:37;6.40;;;5.80;;
8297;SDS011;4187;42.778;23.242;2023-08-17T00:28:02;7.15;;;5.68;;
8297;SDS011;4187;42.778;23.242;2023-08-17T00:31:29;10.88;;;5.85;;
8297;SDS011;4187;42.778;23.242;2023-08-17T00:34:55;12.70;;;5.78;;
8297;SDS011;4187;42.778;23.242;2023-08-17T00:38:20;9.60;;;6.50;;
8297;SDS011;4187;42.778;23.242;2023-08-17T00:41:45;10.48;;;6.45;;
8297;SDS011;4187;42.778;23.242;2023-08-17T00:45:11;7.88;;;6.78;;
8297;SDS011;4187;42.778;23.242;2023-08-17T00:48:38;9.05;;;6.32;;
8297;SDS011;4187;42.778;23.242;2023-08-17T00:52:04;7.05;;;6.05;;
8297;SDS011;4187;42.778;23.242;2023-08-17T00:55:29;8.85;;;5.95;;
8297;SDS011;4187;42.778;23.242;2023-08-17T00:58:55;11.32;;;6.32;;
8297;SDS011;4187;42.778;23.242;2023-08-17T01:02:21;12.63;;;6.30;;
8297;SDS011;4187;42.778;23.242;2023-08-17T01:05:49;8.00;;;6.18;;
8297;SDS011;4187;42.778;23.242;2023-08-17T01:09:15;7.53;;;5.47;;
8297;SDS011;4187;42.778;23.242;2023-08-17T01:12:42;7.28;;;6.00;;
8297;SDS011;4187;42.778;23.242;2023-08-17T01:16:14;7.28;;;6.57;;
8297;SDS011;4187;42.778;23.242;2023-08-17T01:19:43;6.90;;;5.78;;
8297;SDS011;4187;42.778;23.242;2023-08-17T01:23:11;11.93;;;5.90;;
8297;SDS011;4187;42.778;23.242;2023-08-17T01:26:37;8.23;;;6.20;;
8297;SDS011;4187;42.778;23.242;2023-08-17T01:30:07;10.32;;;6.80;;
8297;SDS011;4187;42.778;23.242;2023-08-17T01:33:38;7.30;;;5.95;;
8297;SDS011;4187;42.778;23.242;2023-08-17T01:37:06;8.65;;;5.85;;
8297;SDS011;4187;42.778;23.242;2023-08-17T01:40:35;9.93;;;6.75;;
8297;SDS011;4187;42.778;23.242;2023-08-17T01:44:01;7.10;;;6.47;;
8297;SDS011;4187;42.778;23.242;2023-08-17T01:47:27;7.32;;;6.30;;
8297;SDS011;4187;42.778;23.242;2023-08-17T01:50:52;7.70;;;6.68;;
8297;SDS011;4187;42.778;23.242;2023-08-17T01:54:18;11.02;;;6.93;;
8297;SDS011;4187;42.778;23.242;2023-08-17T01:57:45;10.82;;;6.43;;
8297;SDS011;4187;42.778;23.242;2023-08-17T02:01:10;8.07;;;6.05;;
8297;SDS011;4187;42.778;23.242;2023-08-17T02:04:36;10.23;;;7.05;;
8297;SDS011;4187;42.778;23.242;2023-08-17T02:08:02;9.65;;;7.00;;
8297;SDS011;4187;42.778;23.242;2023-08-17T02:11:27;8.00;;;7.13;;
8297;SDS011;4187;42.778;23.242;2023-08-17T02:14:54;10.30;;;7.20;;
8297;SDS011;4187;42.778;23.242;2023-08-17T02:18:19;11.15;;;7.03;;
8297;SDS011;4187;42.778;23.242;2023-08-17T02:21:44;11.05;;;6.78;;
8297;SDS011;4187;42.778;23.242;2023-08-17T02:25:10;11.68;;;7.03;;
8297;SDS011;4187;42.778;23.242;2023-08-17T02:28:35;8.13;;;6.63;;
8297;SDS011;4187;42.778;23.242;2023-08-17T02:32:02;8.40;;;6.15;;
8297;SDS011;4187;42.778;23.242;2023-08-17T02:35:28;9.55;;;6.95;;
8297;SDS011;4187;42.778;23.242;2023-08-17T02:38:54;7.88;;;7.03;;
8297;SDS011;4187;42.778;23.242;2023-08-17T02:42:20;13.48;;;7.25;;
8297;SDS011;4187;42.778;23.242;2023-08-17T02:45:45;9.77;;;6.93;;
8297;SDS011;4187;42.778;23.242;2023-08-17T02:49:12;7.63;;;6.80;;
8297;SDS011;4187;42.778;23.242;2023-08-17T02:52:37;9.13;;;6.50;;
8297;SDS011;4187;42.778;23.242;2023-08-17T02:56:03;9.40;;;7.15;;
8297;SDS011;4187;42.778;23.242;2023-08-17T02:59:29;11.13;;;6.95;;
8297;SDS011;4187;42.778;23.242;2023-08-17T03:02:54;11.90;;;6.63;;
8297;SDS011;4187;42.778;23.242;2023-08-17T03:06:21;9.27;;;6.50;;
8297;SDS011;4187;42.778;23.242;2023-08-17T03:09:46;8.60;;;7.13;;
8297;SDS011;4187;42.778;23.242;2023-08-17T03:13:11;12.35;;;7.30;;
8297;SDS011;4187;42.778;23.242;2023-08-17T03:16:36;9.75;;;6.88;;
8297;SDS011;4187;42.778;23.242;2023-08-17T03:20:02;9.75;;;6.75;;
8297;SDS011;4187;42.778;23.242;2023-08-17T03:23:29;12.38;;;6.85;;
8297;SDS011;4187;42.778;23.242;2023-08-17T03:26:54;8.65;;;6.53;;
8297;SDS011;4187;42.778;23.242;2023-08-17T03:30:19;9.07;;;6.88;;
8297;SDS011;4187;42.778;23.242;2023-08-17T03:33:46;10.95;;;7.15;;
8297;SDS011;4187;42.778;23.242;2023-08-17T03:37:11;7.90;;;6.43;;
8297;SDS011;4187;42.778;23.242;2023-08-17T03:40:38;8.88;;;6.63;;
8297;SDS011;4187;42.778;23.242;2023-08-17T03:44:04;8.75;;;6.57;;
8297;SDS011;4187;42.778;23.242;2023-08-17T03:47:30;7.03;;;6.32;;
8297;SDS011;4187;42.778;23.242;2023-08-17T03:50:55;7.90;;;6.70;;
8297;SDS011;4187;42.778;23.242;2023-08-17T03:54:21;11.25;;;6.80;;
8297;SDS011;4187;42.778;23.242;2023-08-17T03:57:47;7.47;;;6.57;;
8297;SDS011;4187;42.778;23.242;2023-08-17T04:01:12;7.32;;;6.47;;
8297;SDS011;4187;42.778;23.242;2023-08-17T04:04:38;6.88;;;6.28;;
8297;SDS011;4187;42.778;23.242;2023-08-17T04:08:03;7.60;;;6.90;;
8297;SDS011;4187;42.778;23.242;2023-08-17T04:11:29;10.32;;;6.30;;
8297;SDS011;4187;42.778;23.242;2023-08-17T04:14:56;9.70;;;6.00;;
8297;SDS011;4187;42.778;23.242;2023-08-17T04:18:21;7.95;;;6.60;;
8297;SDS011;4187;42.778;23.242;2023-08-17T04:21:46;7.68;;;6.63;;
8297;SDS011;4187;42.778;23.242;2023-08-17T04:25:12;10.80;;;6.13;;
8297;SDS011;4187;42.778;23.242;2023-08-17T04:28:37;7.53;;;6.35;;
8297;SDS011;4187;42.778;23.242;2023-08-17T04:32:05;7.68;;;6.22;;
8297;SDS011;4187;42.778;23.242;2023-08-17T04:35:32;7.93;;;5.72;;
8297;SDS011;4187;42.778;23.242;2023-08-17T04:38:58;8.73;;;5.78;;
8297;SDS011;4187;42.778;23.242;2023-08-17T04:42:23;9.70;;;5.93;;
8297;SDS011;4187;42.778;23.242;2023-08-17T04:45:49;10.82;;;6.38;;
8297;SDS011;4187;42.778;23.242;2023-08-17T04:49:15;7.47;;;5.95;;
8297;SDS011;4187;42.778;23.242;2023-08-17T04:52:41;10.45;;;5.95;;
8297;SDS011;4187;42.778;23.242;2023-08-17T04:56:06;9.68;;;5.47;;
8297;SDS011;4187;42.778;23.242;2023-08-17T04:59:32;8.48;;;6.03;;
8297;SDS011;4187;42.778;23.242;2023-08-17T05:02:58;5.88;;;5.30;;
8297;SDS011;4187;42.778;23.242;2023-08-17T05:06:27;10.57;;;5.97;;
8297;SDS011;4187;42.778;23.242;2023-08-17T05:09:52;7.03;;;5.78;;
8297;SDS011;4187;42.778;23.242;2023-08-17T05:13:18;7.40;;;5.60;;
8297;SDS011;4187;42.778;23.242;2023-08-17T05:16:43;7.28;;;5.55;;
8297;SDS011;4187;42.778;23.242;2023-08-17T05:20:09;9.27;;;6.00;;
8297;SDS011;4187;42.778;23.242;2023-08-17T05:23:35;8.38;;;6.28;;
8297;SDS011;4187;42.778;23.242;2023-08-17T05:27:01;8.65;;;6.30;;
8297;SDS011;4187;42.778;23.242;2023-08-17T05:30:26;8.20;;;6.20;;
8297;SDS011;4187;42.778;23.242;2023-08-17T05:33:51;13.05;;;6.88;;
8297;SDS011;4187;42.778;23.242;2023-08-17T05:37:17;8.75;;;6.85;;
8297;SDS011;4187;42.778;23.242;2023-08-17T05:40:43;9.45;;;7.30;;
8297;SDS011;4187;42.778;23.242;2023-08-17T05:44:09;8.88;;;7.32;;
8297;SDS011;4187;42.778;23.242;2023-08-17T05:47:35;12.23;;;7.90;;
8297;SDS011;4187;42.778;23.242;2023-08-17T05:51:00;9.15;;;7.47;;
8297;SDS011;4187;42.778;23.242;2023-08-17T05:54:25;9.20;;;8.23;;
8297;SDS011;4187;42.778;23.242;2023-08-17T05:57:52;9.55;;;7.88;;
8297;SDS011;4187;42.778;23.242;2023-08-17T06:01:17;10.80;;;7.43;;
8297;SDS011;4187;42.778;23.242;2023-08-17T06:04:43;10.25;;;7.50;;
8297;SDS011;4187;42.778;23.242;2023-08-17T06:08:08;8.35;;;7.60;;
8297;SDS011;4187;42.778;23.242;2023-08-17T06:11:34;9.70;;;7.53;;
8297;SDS011;4187;42.778;23.242;2023-08-17T06:15:01;8.48;;;7.47;;
8297;SDS011;4187;42.778;23.242;2023-08-17T06:18:27;9.57;;;8.05;;
8297;SDS011;4187;42.778;23.242;2023-08-17T06:21:52;9.57;;;7.88;;
8297;SDS011;4187;42.778;23.242;2023-08-17T06:25:17;9.00;;;7.47;;
8297;SDS011;4187;42.778;23.242;2023-08-17T06:28:43;12.23;;;7.97;;
8297;SDS011;4187;42.778;23.242;2023-08-17T06:32:10;12.05;;;7.63;;
8297;SDS011;4187;42.778;23.242;2023-08-17T06:35:35;8.60;;;7.78;;
8297;SDS011;4187;42.778;23.242;2023-08-17T06:39:04;9.27;;;7.68;;
8297;SDS011;4187;42.778;23.242;2023-08-17T06:42:31;11.25;;;8.15;;
8297;SDS011;4187;42.778;23.242;2023-08-17T06:45:56;8.10;;;7.40;;
8297;SDS011;4187;42.778;23.242;2023-08-17T06:49:23;10.88;;;8.30;;
8297;SDS011;4187;42.778;23.242;2023-08-17T06:52:48;11.82;;;7.47;;
8297;SDS011;4187;42.778;23.242;2023-08-17T06:56:14;9.38;;;7.28;;
8297;SDS011;4187;42.778;23.242;2023-08-17T06:59:39;7.90;;;6.80;;
8297;SDS011;4187;42.778;23.242;2023-08-17T07:03:06;11.43;;;7.20;;
8297;SDS011;4187;42.778;23.242;2023-08-17T07:06:34;10.68;;;6.18;;
8297;SDS011;4187;42.778;23.242;2023-08-17T07:09:59;8.13;;;6.28;;
8297;SDS011;4187;42.778;23.242;2023-08-17T07:13:29;7.10;;;5.75;;
8297;SDS011;4187;42.778;23.242;2023-08-17T07:16:54;6.63;;;5.05;;
8297;SDS011;4187;42.778;23.242;2023-08-17T07:20:20;5.93;;;4.95;;
8297;SDS011;4187;42.778;23.242;2023-08-17T07:23:46;7.15;;;5.20;;
8297;SDS011;4187;42.778;23.242;2023-08-17T07:27:12;5.13;;;4.60;;
8297;SDS011;4187;42.778;23.242;2023-08-17T07:30:37;10.82;;;4.55;;
8297;SDS011;4187;42.778;23.242;2023-08-17T07:34:03;6.65;;;5.65;;
8297;SDS011;4187;42.778;23.242;2023-08-17T07:37:28;7.38;;;6.13;;
8297;SDS011;4187;42.778;23.242;2023-08-17T07:40:55;5.93;;;5.35;;
8297;SDS011;4187;42.778;23.242;2023-08-17T07:44:21;6.10;;;5.50;;
8297;SDS011;4187;42.778;23.242;2023-08-17T07:47:46;6.00;;;5.30;;
8297;SDS011;4187;42.778;23.242;2023-08-17T07:51:12;7.32;;;5.57;;
8297;SDS011;4187;42.778;23.242;2023-08-17T07:54:37;5.60;;;5.07;;
8297;SDS011;4187;42.778;23.242;2023-08-17T07:58:04;7.88;;;5.20;;
8297;SDS011;4187;42.778;23.242;2023-08-17T08:01:29;9.48;;;5.82;;
8297;SDS011;4187;42.778;23.242;2023-08-17T08:04:55;6.78;;;5.30;;
8297;SDS011;4187;42.778;23.242;2023-08-17T08:08:20;6.28;;;5.68;;
8297;SDS011;4187;42.778;23.242;2023-08-17T08:11:46;6.28;;;5.05;;
8297;SDS011;4187;42.778;23.242;2023-08-17T08:15:13;5.90;;;5.20;;
8297;SDS011;4187;42.778;23.242;2023-08-17T08:18:38;8.30;;;4.68;;
8297;SDS011;4187;42.778;23.242;2023-08-17T08:22:04;9.90;;;4.57;;
8297;SDS011;4187;42.778;23.242;2023-08-17T08:25:29;6.57;;;4.68;;
8297;SDS011;4187;42.778;23.242;2023-08-17T08:28:55;5.88;;;5.22;;
8297;SDS011;4187;42.778;23.242;2023-08-17T08:32:21;6.75;;;5.07;;
8297;SDS011;4187;42.778;23.242;2023-08-17T08:35:47;8.15;;;5.10;;
8297;SDS011;4187;42.778;23.242;2023-08-17T08:39:13;8.90;;;5.20;;
8297;SDS011;4187;42.778;23.242;2023-08-17T08:42:39;5.03;;;4.47;;
8297;SDS011;4187;42.778;23.242;2023-08-17T08:46:05;6.55;;;4.72;;
8297;SDS011;4187;42.778;23.242;2023-08-17T08:49:32;4.82;;;4.03;;
8297;SDS011;4187;42.778;23.242;2023-08-17T08:53:02;3.92;;;3.53;;
8297;SDS011;4187;42.778;23.242;2023-08-17T08:56:30;6.18;;;4.22;;
8297;SDS011;4187;42.778;23.242;2023-08-17T08:59:56;5.50;;;3.38;;
8297;SDS011;4187;42.778;23.242;2023-08-17T09:03:23;6.03;;;3.70;;
8297;SDS011;4187;42.778;23.242;2023-08-17T09:06:51;5.95;;;3.97;;
8297;SDS011;4187;42.778;23.242;2023-08-17T09:10:18;8.40;;;4.07;;
8297;SDS011;4187;42.778;23.242;2023-08-17T09:13:43;5.57;;;3.95;;
8297;SDS011;4187;42.778;23.242;2023-08-17T09:17:09;5.93;;;4.00;;
8297;SDS011;4187;42.778;23.242;2023-08-17T09:20:38;3.97;;;3.58;;
8297;SDS011;4187;42.778;23.242;2023-08-17T09:24:06;5.82;;;3.92;;
8297;SDS011;4187;42.778;23.242;2023-08-17T09:27:32;6.95;;;4.85;;
8297;SDS011;4187;42.778;23.242;2023-08-17T09:30:58;7.00;;;5.43;;
8297;SDS011;4187;42.778;23.242;2023-08-17T09:34:24;7.40;;;4.90;;
8297;SDS011;4187;42.778;23.242;2023-08-17T09:37:49;10.30;;;5.43;;
8297;SDS011;4187;42.778;23.242;2023-08-17T09:41:17;5.75;;;4.80;;
8297;SDS011;4187;42.778;23.242;2023-08-17T09:44:43;5.90;;;4.07;;
8297;SDS011;4187;42.778;23.242;2023-08-17T09:48:09;5.88;;;4.80;;
8297;SDS011;4187;42.778;23.242;2023-08-17T09:51:35;10.45;;;4.45;;
8297;SDS011;4187;42.778;23.242;2023-08-17T09:55:05;8.02;;;4.50;;
8297;SDS011;4187;42.778;23.242;2023-08-17T09:58:34;6.38;;;4.53;;
8297;SDS011;4187;42.778;23.242;2023-08-17T10:01:59;7.68;;;4.20;;
8297;SDS011;4187;42.778;23.242;2023-08-17T10:05:28;6.60;;;4.15;;
8297;SDS011;4187;42.778;23.242;2023-08-17T10:08:56;4.72;;;3.90;;
8297;SDS011;4187;42.778;23.242;2023-08-17T10:12:23;8.13;;;4.57;;
8297;SDS011;4187;42.778;23.242;2023-08-17T10:15:57;6.97;;;4.13;;
8297;SDS011;4187;42.778;23.242;2023-08-17T10:19:30;6.93;;;3.72;;
8297;SDS011;4187;42.778;23.242;2023-08-17T10:23:01;4.00;;;2.80;;
8297;SDS011;4187;42.778;23.242;2023-08-17T10:26:31;7.70;;;3.50;;
8297;SDS011;4187;42.778;23.242;2023-08-17T10:29:56;4.05;;;3.15;;
8297;SDS011;4187;42.778;23.242;2023-08-17T10:33:24;4.88;;;3.00;;
8297;SDS011;4187;42.778;23.242;2023-08-17T10:36:50;3.80;;;3.15;;
8297;SDS011;4187;42.778;23.242;2023-08-17T10:40:15;3.85;;;3.50;;
8297;SDS011;4187;42.778;23.242;2023-08-17T10:47:31;3.67;;;3.38;;
8297;SDS011;4187;42.778;23.242;2023-08-17T10:51:00;7.00;;;3.40;;
8297;SDS011;4187;42.778;23.242;2023-08-17T10:54:35;3.97;;;3.65;;
8297;SDS011;4187;42.778;23.242;2023-08-17T10:58:02;3.72;;;3.38;;
8297;SDS011;4187;42.778;23.242;2023-08-17T11:01:31;3.92;;;3.63;;
8297;SDS011;4187;42.778;23.242;2023-08-17T11:05:00;4.22;;;3.35;;
8297;SDS011;4187;42.778;23.242;2023-08-17T11:08:51;6.18;;;4.25;;
8297;SDS011;4187;42.778;23.242;2023-08-17T11:12:25;5.28;;;3.72;;
8297;SDS011;4187;42.778;23.242;2023-08-17T11:15:53;5.57;;;3.47;;
8297;SDS011;4187;42.778;23.242;2023-08-17T11:19:22;4.38;;;3.80;;
8297;SDS011;4187;42.778;23.242;2023-08-17T11:22:52;4.32;;;3.50;;
8297;SDS011;4187;42.778;23.242;2023-08-17T11:26:17;5.15;;;4.03;;
8297;SDS011;4187;42.778;23.242;2023-08-17T11:29:43;6.13;;;3.90;;
8297;SDS011;4187;42.778;23.242;2023-08-17T11:33:09;6.50;;;4.20;;
8297;SDS011;4187;42.778;23.242;2023-08-17T11:36:36;7.60;;;4.28;;
8297;SDS011;4187;42.778;23.242;2023-08-17T11:40:02;7.00;;;4.40;;
8297;SDS011;4187;42.778;23.242;2023-08-17T11:43:29;4.10;;;3.60;;
8297;SDS011;4187;42.778;23.242;2023-08-17T11:46:54;4.85;;;4.30;;
8297;SDS011;4187;42.778;23.242;2023-08-17T11:50:19;6.20;;;4.15;;
8297;SDS011;4187;42.778;23.242;2023-08-17T11:53:58;4.22;;;3.72;;
8297;SDS011;4187;42.778;23.242;2023-08-17T11:57:23;4.70;;;4.03;;
8297;SDS011;4187;42.778;23.242;2023-08-17T12:01:02;4.57;;;4.03;;
8297;SDS011;4187;42.778;23.242;2023-08-17T12:04:27;6.15;;;4.10;;
8297;SDS011;4187;42.778;23.242;2023-08-17T12:07:54;6.32;;;4.03;;
8297;SDS011;4187;42.778;23.242;2023-08-17T12:11:23;4.95;;;4.18;;
8297;SDS011;4187;42.778;23.242;2023-08-17T12:14:48;4.22;;;3.83;;
8297;SDS011;4187;42.778;23.242;2023-08-17T12:18:15;6.57;;;4.00;;
8297;SDS011;4187;42.778;23.242;2023-08-17T12:21:40;7.22;;;3.88;;
8297;SDS011;4187;42.778;23.242;2023-08-17T12:25:07;7.50;;;4.15;;
8297;SDS011;4187;42.778;23.242;2023-08-17T12:28:34;6.07;;;3.95;;
8297;SDS011;4187;42.778;23.242;2023-08-17T12:32:00;5.07;;;4.43;;
8297;SDS011;4187;42.778;23.242;2023-08-17T12:35:26;4.20;;;3.78;;
8297;SDS011;4187;42.778;23.242;2023-08-17T12:38:51;6.40;;;4.00;;
8297;SDS011;4187;42.778;23.242;2023-08-17T12:42:17;8.18;;;4.47;;
8297;SDS011;4187;42.778;23.242;2023-08-17T12:45:44;6.35;;;4.10;;
8297;SDS011;4187;42.778;23.242;2023-08-17T12:49:09;5.75;;;4.28;;
8297;SDS011;4187;42.778;23.242;2023-08-17T12:52:34;6.28;;;3.85;;
8297;SDS011;4187;42.778;23.242;2023-08-17T12:56:03;6.82;;;3.50;;
8297;SDS011;4187;42.778;23.242;2023-08-17T12:59:30;5.10;;;4.10;;
8297;SDS011;4187;42.778;23.242;2023-08-17T13:02:57;5.13;;;4.10;;
8297;SDS011;4187;42.778;23.242;2023-08-17T13:06:23;4.55;;;3.75;;
8297;SDS011;4187;42.778;23.242;2023-08-17T13:09:49;7.25;;;4.13;;
8297;SDS011;4187;42.778;23.242;2023-08-17T13:13:14;3.80;;;3.50;;
8297;SDS011;4187;42.778;23.242;2023-08-17T13:16:40;5.57;;;4.10;;
8297;SDS011;4187;42.778;23.242;2023-08-17T13:20:08;4.25;;;3.55;;
8297;SDS011;4187;42.778;23.242;2023-08-17T13:23:33;4.10;;;3.70;;
8297;SDS011;4187;42.778;23.242;2023-08-17T13:26:58;4.53;;;3.60;;
8297;SDS011;4187;42.778;23.242;2023-08-17T13:30:24;4.68;;;3.45;;
8297;SDS011;4187;42.778;23.242;2023-08-17T13:33:49;4.50;;;3.58;;
8297;SDS011;4187;42.778;23.242;2023-08-17T13:37:16;4.50;;;3.60;;
8297;SDS011;4187;42.778;23.242;2023-08-17T13:40:44;6.05;;;3.38;;
8297;SDS011;4187;42.778;23.242;2023-08-17T13:44:09;3.85;;;3.45;;
8297;SDS011;4187;42.778;23.242;2023-08-17T13:47:35;7.10;;;3.92;;
8297;SDS011;4187;42.778;23.242;2023-08-17T13:51:00;5.05;;;3.20;;
8297;SDS011;4187;42.778;23.242;2023-08-17T13:54:27;5.25;;;3.58;;
8297;SDS011;4187;42.778;23.242;2023-08-17T13:57:53;7.20;;;3.72;;
8297;SDS011;4187;42.778;23.242;2023-08-17T14:01:18;4.63;;;3.35;;
8297;SDS011;4187;42.778;23.242;2023-08-17T14:04:44;3.97;;;3.50;;
8297;SDS011;4187;42.778;23.242;2023-08-17T14:08:10;5.03;;;2.97;;
8297;SDS011;4187;42.778;23.242;2023-08-17T14:11:36;4.07;;;3.33;;
8297;SDS011;4187;42.778;23.242;2023-08-17T14:15:02;4.15;;;3.58;;
8297;SDS011;4187;42.778;23.242;2023-08-17T14:18:27;4.65;;;4.03;;
8297;SDS011;4187;42.778;23.242;2023-08-17T14:21:52;5.25;;;3.50;;
8297;SDS011;4187;42.778;23.242;2023-08-17T14:25:18;4.18;;;3.47;;
8297;SDS011;4187;42.778;23.242;2023-08-17T14:28:44;5.38;;;3.70;;
8297;SDS011;4187;42.778;23.242;2023-08-17T14:32:10;6.68;;;3.40;;
8297;SDS011;4187;42.778;23.242;2023-08-17T14:35:35;6.10;;;3.90;;
8297;SDS011;4187;42.778;23.242;2023-08-17T14:39:00;3.50;;;3.20;;
8297;SDS011;4187;42.778;23.242;2023-08-17T14:42:26;5.80;;;3.33;;
8297;SDS011;4187;42.778;23.242;2023-08-17T14:45:52;5.40;;;3.70;;
8297;SDS011;4187;42.778;23.242;2023-08-17T14:49:18;6.80;;;3.28;;
8297;SDS011;4187;42.778;23.242;2023-08-17T14:52:43;4.13;;;3.53;;
8297;SDS011;4187;42.778;23.242;2023-08-17T14:56:09;4.10;;;3.30;;
8297;SDS011;4187;42.778;23.242;2023-08-17T14:59:34;6.07;;;3.47;;
8297;SDS011;4187;42.778;23.242;2023-08-17T15:03:01;7.97;;;3.60;;
8297;SDS011;4187;42.778;23.242;2023-08-17T15:06:26;4.03;;;3.45;;
8297;SDS011;4187;42.778;23.242;2023-08-17T15:09:52;3.88;;;3.40;;
8297;SDS011;4187;42.778;23.242;2023-08-17T15:13:18;4.00;;;3.25;;
8297;SDS011;4187;42.778;23.242;2023-08-17T15:16:43;4.10;;;3.00;;
8297;SDS011;4187;42.778;23.242;2023-08-17T15:20:11;5.30;;;3.33;;
8297;SDS011;4187;42.778;23.242;2023-08-17T15:23:36;6.53;;;3.42;;
8297;SDS011;4187;42.778;23.242;2023-08-17T15:27:01;3.58;;;3.28;;
8297;SDS011;4187;42.778;23.242;2023-08-17T15:30:27;4.40;;;3.40;;
8297;SDS011;4187;42.778;23.242;2023-08-17T15:33:52;4.82;;;3.40;;
8297;SDS011;4187;42.778;23.242;2023-08-17T15:37:19;3.55;;;3.22;;
8297;SDS011;4187;42.778;23.242;2023-08-17T15:40:44;5.55;;;3.65;;
8297;SDS011;4187;42.778;23.242;2023-08-17T15:44:10;5.85;;;3.63;;
8297;SDS011;4187;42.778;23.242;2023-08-17T15:47:35;5.28;;;3.08;;
8297;SDS011;4187;42.778;23.242;2023-08-17T15:51:01;4.20;;;3.70;;
8297;SDS011;4187;42.778;23.242;2023-08-17T15:54:28;4.72;;;3.42;;
8297;SDS011;4187;42.778;23.242;2023-08-17T15:57:53;4.78;;;3.28;;
8297;SDS011;4187;42.778;23.242;2023-08-17T16:01:21;4.97;;;3.75;;
8297;SDS011;4187;42.778;23.242;2023-08-17T16:04:46;4.50;;;3.67;;
8297;SDS011;4187;42.778;23.242;2023-08-17T16:08:11;5.50;;;3.58;;
8297;SDS011;4187;42.778;23.242;2023-08-17T16:11:38;3.97;;;3.50;;
8297;SDS011;4187;42.778;23.242;2023-08-17T16:15:04;4.03;;;3.63;;
8297;SDS011;4187;42.778;23.242;2023-08-17T16:18:29;6.03;;;4.05;;
8297;SDS011;4187;42.778;23.242;2023-08-17T16:21:55;4.82;;;3.47;;
8297;SDS011;4187;42.778;23.242;2023-08-17T16:25:20;7.90;;;3.65;;
8297;SDS011;4187;42.778;23.242;2023-08-17T16:28:47;5.85;;;4.00;;
8297;SDS011;4187;42.778;23.242;2023-08-17T16:32:12;5.35;;;3.58;;
8297;SDS011;4187;42.778;23.242;2023-08-17T16:35:37;4.60;;;4.00;;
8297;SDS011;4187;42.778;23.242;2023-08-17T16:39:03;3.60;;;3.30;;
8297;SDS011;4187;42.778;23.242;2023-08-17T16:42:29;4.32;;;3.67;;
8297;SDS011;4187;42.778;23.242;2023-08-17T16:45:56;5.18;;;3.90;;
8297;SDS011;4187;42.778;23.242;2023-08-17T16:49:21;4.63;;;3.70;;
8297;SDS011;4187;42.778;23.242;2023-08-17T16:52:46;8.07;;;4.13;;
8297;SDS011;4187;42.778;23.242;2023-08-17T16:56:14;6.32;;;4.03;;
8297;SDS011;4187;42.778;23.242;2023-08-17T16:59:40;6.00;;;4.10;;
8297;SDS011;4187;42.778;23.242;2023-08-17T17:03:07;4.32;;;3.85;;
8297;SDS011;4187;42.778;23.242;2023-08-17T17:06:32;4.93;;;3.95;;
8297;SDS011;4187;42.778;23.242;2023-08-17T17:09:57;5.05;;;3.90;;
8297;SDS011;4187;42.778;23.242;2023-08-17T17:13:23;7.75;;;4.25;;
8297;SDS011;4187;42.778;23.242;2023-08-17T17:16:48;4.78;;;3.85;;
8297;SDS011;4187;42.778;23.242;2023-08-17T17:20:15;5.50;;;4.10;;
8297;SDS011;4187;42.778;23.242;2023-08-17T17:23:40;4.68;;;4.10;;
8297;SDS011;4187;42.778;23.242;2023-08-17T17:27:05;6.53;;;4.80;;
8297;SDS011;4187;42.778;23.242;2023-08-17T17:30:31;6.53;;;4.40;;
8297;SDS011;4187;42.778;23.242;2023-08-17T17:33:56;7.60;;;4.63;;
8297;SDS011;4187;42.778;23.242;2023-08-17T17:37:23;5.97;;;5.03;;
8297;SDS011;4187;42.778;23.242;2023-08-17T17:40:48;4.95;;;4.40;;
8297;SDS011;4187;42.778;23.242;2023-08-17T17:44:14;7.25;;;5.25;;
8297;SDS011;4187;42.778;23.242;2023-08-17T17:47:39;5.85;;;4.60;;
8297;SDS011;4187;42.778;23.242;2023-08-17T17:51:04;6.57;;;4.90;;
8297;SDS011;4187;42.778;23.242;2023-08-17T17:54:31;8.02;;;4.53;;
8297;SDS011;4187;42.778;23.242;2023-08-17T17:57:57;4.90;;;4.50;;
8297;SDS011;4187;42.778;23.242;2023-08-17T18:01:25;4.50;;;4.10;;
8297;SDS011;4187;42.778;23.242;2023-08-17T18:04:52;6.40;;;4.10;;
8297;SDS011;4187;42.778;23.242;2023-08-17T18:08:17;4.75;;;4.15;;
8297;SDS011;4187;42.778;23.242;2023-08-17T18:11:44;5.70;;;4.00;;
8297;SDS011;4187;42.778;23.242;2023-08-17T18:15:09;6.75;;;4.13;;
8297;SDS011;4187;42.778;23.242;2023-08-17T18:18:35;4.50;;;4.03;;
8297;SDS011;4187;42.778;23.242;2023-08-17T18:22:00;5.03;;;3.95;;
8297;SDS011;4187;42.778;23.242;2023-08-17T18:25:25;7.43;;;4.03;;
8297;SDS011;4187;42.778;23.242;2023-08-17T18:28:53;5.30;;;4.47;;
8297;SDS011;4187;42.778;23.242;2023-08-17T18:32:18;6.72;;;4.38;;
8297;SDS011;4187;42.778;23.242;2023-08-17T18:35:44;5.15;;;4.18;;
8297;SDS011;4187;42.778;23.242;2023-08-17T18:39:09;7.45;;;4.50;;
8297;SDS011;4187;42.778;23.242;2023-08-17T18:42:36;5.22;;;4.50;;
8297;SDS011;4187;42.778;23.242;2023-08-17T18:46:03;4.55;;;4.15;;
8297;SDS011;4187;42.778;23.242;2023-08-17T18:49:29;6.07;;;4.38;;
8297;SDS011;4187;42.778;23.242;2023-08-17T18:52:55;4.45;;;4.13;;
8297;SDS011;4187;42.778;23.242;2023-08-17T18:56:20;5.72;;;3.97;;
8297;SDS011;4187;42.778;23.242;2023-08-17T18:59:45;5.95;;;3.90;;
8297;SDS011;4187;42.778;23.242;2023-08-17T19:03:12;4.47;;;4.07;;
8297;SDS011;4187;42.778;23.242;2023-08-17T19:06:37;5.57;;;4.10;;
8297;SDS011;4187;42.778;23.242;2023-08-17T19:10:03;6.25;;;4.00;;
8297;SDS011;4187;42.778;23.242;2023-08-17T19:13:29;5.20;;;4.22;;
8297;SDS011;4187;42.778;23.242;2023-08-17T19:16:54;4.65;;;4.13;;
8297;SDS011;4187;42.778;23.242;2023-08-17T19:20:21;7.45;;;4.20;;
8297;SDS011;4187;42.778;23.242;2023-08-17T19:23:46;5.13;;;4.47;;
8297;SDS011;4187;42.778;23.242;2023-08-17T19:27:12;4.60;;;4.20;;
8297;SDS011;4187;42.778;23.242;2023-08-17T19:30:37;5.97;;;4.18;;
8297;SDS011;4187;42.778;23.242;2023-08-17T19:34:03;4.50;;;4.10;;
8297;SDS011;4187;42.778;23.242;2023-08-17T19:37:31;5.93;;;3.78;;
8297;SDS011;4187;42.778;23.242;2023-08-17T19:40:56;5.20;;;4.13;;
8297;SDS011;4187;42.778;23.242;2023-08-17T19:44:23;6.78;;;4.35;;
8297;SDS011;4187;42.778;23.242;2023-08-17T19:47:48;6.20;;;4.35;;
8297;SDS011;4187;42.778;23.242;2023-08-17T19:51:14;5.93;;;4.38;;
8297;SDS011;4187;42.778;23.242;2023-08-17T19:54:41;5.05;;;4.60;;
8297;SDS011;4187;42.778;23.242;2023-08-17T19:58:06;6.32;;;3.95;;
8297;SDS011;4187;42.778;23.242;2023-08-17T20:01:32;4.70;;;4.30;;
8297;SDS011;4187;42.778;23.242;2023-08-17T20:04:57;4.68;;;4.28;;
8297;SDS011;4187;42.778;23.242;2023-08-17T20:08:23;4.75;;;4.35;;
8297;SDS011;4187;42.778;23.242;2023-08-17T20:11:49;7.25;;;4.20;;
8297;SDS011;4187;42.778;23.242;2023-08-17T20:15:15;5.68;;;4.28;;
8297;SDS011;4187;42.778;23.242;2023-08-17T20:18:44;5.35;;;4.63;;
8297;SDS011;4187;42.778;23.242;2023-08-17T20:22:10;5.32;;;4.53;;
8297;SDS011;4187;42.778;23.242;2023-08-17T20:25:35;5.18;;;4.68;;
8297;SDS011;4187;42.778;23.242;2023-08-17T20:29:02;7.50;;;4.90;;
8297;SDS011;4187;42.778;23.242;2023-08-17T20:32:27;5.63;;;4.80;;
8297;SDS011;4187;42.778;23.242;2023-08-17T20:35:54;7.10;;;5.18;;
8297;SDS011;4187;42.778;23.242;2023-08-17T20:39:19;7.80;;;4.95;;
8297;SDS011;4187;42.778;23.242;2023-08-17T20:42:45;5.43;;;4.80;;
8297;SDS011;4187;42.778;23.242;2023-08-17T20:46:11;7.35;;;5.50;;
8297;SDS011;4187;42.778;23.242;2023-08-17T20:49:37;8.63;;;4.70;;
8297;SDS011;4187;42.778;23.242;2023-08-17T20:53:03;6.45;;;5.07;;
8297;SDS011;4187;42.778;23.242;2023-08-17T20:56:29;7.20;;;4.93;;
8297;SDS011;4187;42.778;23.242;2023-08-17T20:59:54;9.32;;;5.53;;
8297;SDS011;4187;42.778;23.242;2023-08-17T21:03:21;7.88;;;5.22;;